Albi, France

6:52 PM CET on February 08, 2016 (GMT +0100)
Albi - Tarn - France | | Change Station
CLOSE
Current Station
Personal Weather Station
Location: Albi, MIDI-PYRéNéES
Elevation: 590 ft
Nearby Weather Stations

Elev 590 ft 43.92 °N, 2.19 °E | Updated 22 minutes ago

Clear
Clear
55.5 °F
Feels Like 55.5 °F
N
9.0
Wind Variable Wind from North
Gusts 11.0 mph

Today
High -- | Low -- °F
--% Chance of Precip.
Yesterday
High -- | Low -- °F
Precip. -- in
Pressure 30.12 in
Visibility -9999.0 miles
Clouds
Dew Point 43 °F
Humidity 63%
Rainfall 0.00 in
Snow Depth Not available.
8:01 AM 6:10 PM
New Moon, 0% visible
METAR LFCK 081730Z AUTO 35006KT CAVOK 12/06 Q1020
Pressure 30.12 in
Visibility -9999.0 miles
Clouds
Dew Point 43 °F
Humidity 63%
Rainfall 0.00 in
Snow Depth Not available.
8:01 AM 6:10 PM
New Moon, 0% visible
METAR LFCK 081730Z AUTO 35006KT CAVOK 12/06 Q1020

10-Day Weather Forecast

Almanac

Astronomy

Feb. 08, 2016 Rise Set
Actual Time
Civil Twilight
Nautical Twilight
Astronomical Twilight
Moon
Length of Visible Light
Length of Day
Tomorrow will be .
, % of the Moon is Illuminated

Today's Extremes

Country Highs Country Lows

Community

WunderPhotos

Upload Photos

1,891,476 photos uploaded!

WunderBlog® & News

Nearby

Air Quality

  Air Quality AQ Index Pollutant
Not available.

Snow Depth

Station Depth Elevation

Earthquake Activity

City Distance Mag. Time & Date
Minimum magnitude displayed is 2.5.

Coastal Water Temperatures

Place Temperature

Stations

Nearby Weather Stations

Station Location Temp. Windchill Dew Point Humidity Wind Precip. Elev Updated Type